Gridleyville, New York
Current Conditions -  °F | °C
As of 10:56 AM on Thursday 23 Oct 2014 (Local Time) from KITH Reporting Station
Overcast Overcast  
Wind Chill: 40°   Ceiling: 1400
Heat Index: 46°   Visibility: 10mi
Dew Point: 41°   Wind: 14mph
Humidity: 83%   Direction: 340°NNW
Pressure: 29.97"   Gusts: 23mph
Location:  42.294°N, 76.4012°W
Report Text: KITH 231456Z 34012G20KT 10SM OVC014 08/05 A2997 RMK AO2 58004 T00770050 SLP156
Loading
Personal Weather Stations






























Interactive Weather Map
Tropical Storm Tracking
New forecast layout! Learn more

10-Day Weather Forecast

Advertisements
Track Severe Weather on mobile